This is the latest recevied weather packets stored in our database for station/object K6HN. If no packets are shown the sender has not sent any weather packets the latest 1 day(s).
| Time | Temp. | Humidity | Pressure | Rain* | Wind** | Luminosity | Snow |
|---|---|---|---|---|---|---|---|
| 1778026379 | 15° C | 51% | 1001.4 hPa | 0 mm | 3.58 m/s, 286° | - | - |
| 1778025479 | 14.44° C | 52% | 1001.4 hPa | 0 mm | 0.89 m/s, 331° | - | - |
| 1778024579 | 15° C | 53% | 1001.4 hPa | 0 mm | 1.34 m/s, 259° | - | - |
| 1778023679 | 15° C | 51% | 1001.4 hPa | 0 mm | 0.89 m/s, 222° | - | - |
| 1778022779 | 15.56° C | 52% | 1001.7 hPa | 0 mm | 0.45 m/s, 261° | - | - |
| 1778021879 | 16.11° C | 52% | 1001.4 hPa | 0 mm | 1.34 m/s, 242° | - | - |
| 1778020979 | 16.11° C | 51% | 1001.4 hPa | 0 mm | 1.34 m/s, 262° | - | - |
| 1778020079 | 16.11° C | 50% | 1001.4 hPa | 0 mm | 1.79 m/s, 247° | - | - |
| 1778019179 | 16.11° C | 53% | 1001.4 hPa | 0 mm | 2.24 m/s, 249° | - | - |
| 1778018279 | 16.11° C | 53% | 1001.4 hPa | 0 mm | 2.68 m/s, 268° | - | - |
| 1778017379 | 15.56° C | 54% | 1001.4 hPa | 0 mm | 1.79 m/s, 253° | - | - |
| 1778016479 | 15.56° C | 53% | 1001.7 hPa | 0 mm | 0.45 m/s, 181° | - | - |
| 1778015579 | 15° C | 53% | 1002 hPa | 0 mm | 1.79 m/s, 279° | - | - |
| 1778014679 | 15.56° C | 54% | 1001.4 hPa | 0 mm | 1.79 m/s, 278° | - | - |
| 1778013779 | 16.11° C | 54% | 1001.7 hPa | 0 mm | 3.13 m/s, 259° | - | - |
| 1778012879 | 15.56° C | 54% | 1001.7 hPa | 0 mm | 1.79 m/s, 310° | - | - |
| 1778011979 | 15° C | 54% | 1001.7 hPa | 0 mm | 1.34 m/s, 297° | - | - |
| 1778011079 | 15° C | 53% | 1001.7 hPa | 0 mm | 2.68 m/s, 298° | - | - |
| 1778010179 | 14.44° C | 52% | 1001.7 hPa | 0 mm | 2.24 m/s, 305° | - | - |
| 1778009279 | 14.44° C | 52% | 1002 hPa | 0 mm | 3.13 m/s, 284° | - | - |
| 1778008379 | 13.33° C | 53% | 1002 hPa | 0 mm | 1.79 m/s, 245° | - | - |
| 1778007479 | 13.33° C | 53% | 1001.7 hPa | 0 mm | 2.24 m/s, 260° | - | - |
| 1778006579 | 13.33° C | 54% | 1002 hPa | 0 mm | 1.79 m/s, 258° | - | - |
| 1778005679 | 13.33° C | 52% | 1001.7 hPa | 0 mm | 2.24 m/s, 325° | - | - |
| 1778004779 | 12.78° C | 53% | 1001.4 hPa | 0 mm | 1.34 m/s, 282° | - | - |
* Rain latest hour (hover to see other rain measurements)
** Current wind speed in m/s (hover to see current wind gust speed)